createdAt,value
2018-05-29T00:02:27.633Z,19.80
2018-05-29T00:04:56.013Z,19.80
2018-05-29T00:07:24.417Z,19.70
2018-05-29T00:09:52.769Z,19.70
2018-05-29T00:12:21.131Z,19.70
2018-05-29T00:14:49.522Z,19.70
2018-05-29T00:17:17.881Z,19.70
2018-05-29T00:19:46.269Z,19.70
2018-05-29T00:22:14.641Z,19.70
2018-05-29T00:24:43.033Z,19.60
2018-05-29T00:27:11.392Z,19.60
2018-05-29T00:29:40.270Z,19.60
2018-05-29T00:32:08.617Z,19.60
2018-05-29T00:34:36.999Z,19.50
2018-05-29T00:37:05.382Z,19.40
2018-05-29T00:39:33.747Z,19.40
2018-05-29T00:42:02.540Z,19.40
2018-05-29T00:44:30.895Z,19.30
2018-05-29T00:47:00.016Z,19.20
2018-05-29T00:49:28.384Z,19.20
2018-05-29T00:51:56.742Z,19.20
2018-05-29T00:54:25.862Z,19.20
2018-05-29T00:56:54.216Z,19.10
2018-05-29T00:59:23.363Z,19.10
2018-05-29T01:01:51.724Z,19.10
2018-05-29T01:04:20.110Z,19.00
2018-05-29T01:06:48.485Z,19.00
2018-05-29T01:09:16.852Z,19.00
2018-05-29T01:11:45.254Z,19.00
2018-05-29T01:14:13.620Z,18.90
2018-05-29T01:16:42.130Z,18.90
2018-05-29T01:19:10.497Z,18.90
2018-05-29T01:21:38.868Z,18.80
2018-05-29T01:24:07.268Z,18.80
2018-05-29T01:26:35.612Z,18.80
2018-05-29T01:29:03.986Z,18.70
2018-05-29T01:31:32.328Z,18.70
2018-05-29T01:34:01.061Z,18.70
2018-05-29T01:36:29.459Z,18.70
2018-05-29T01:38:57.813Z,18.70
2018-05-29T01:41:26.197Z,18.60
2018-05-29T01:43:54.557Z,18.50
2018-05-29T01:46:23.687Z,18.50
2018-05-29T01:48:52.036Z,18.50
2018-05-29T01:51:20.420Z,18.40
2018-05-29T01:53:48.777Z,18.40
2018-05-29T01:56:17.281Z,18.40
2018-05-29T01:58:45.633Z,18.40
2018-05-29T02:01:13.980Z,18.40
2018-05-29T02:03:43.143Z,18.40
2018-05-29T02:06:11.506Z,18.40
2018-05-29T02:08:39.876Z,18.40
2018-05-29T02:11:08.627Z,18.30
2018-05-29T02:13:36.998Z,18.40
2018-05-29T02:16:06.098Z,18.30
2018-05-29T02:18:34.473Z,18.30
2018-05-29T02:21:02.840Z,18.30
2018-05-29T02:23:31.990Z,18.20
2018-05-29T02:26:00.346Z,18.20
2018-05-29T02:28:28.734Z,18.20
2018-05-29T02:30:57.073Z,18.20
2018-05-29T02:33:26.614Z,18.10
2018-05-29T02:35:54.959Z,18.10
2018-05-29T02:38:23.345Z,18.10
2018-05-29T02:40:52.140Z,18.10
2018-05-29T02:43:20.484Z,18.10
2018-05-29T02:45:48.841Z,18.00
2018-05-29T02:48:17.219Z,18.00
2018-05-29T02:50:45.616Z,18.00
2018-05-29T02:53:14.740Z,18.00
2018-05-29T02:55:43.122Z,18.00
2018-05-29T02:58:12.222Z,18.00
2018-05-29T03:00:41.012Z,18.00
2018-05-29T03:03:09.409Z,18.00
2018-05-29T03:05:37.766Z,18.00
2018-05-29T03:08:06.158Z,18.00
2018-05-29T03:10:34.563Z,18.00
2018-05-29T03:13:02.921Z,18.00
2018-05-29T03:15:31.301Z,18.00
2018-05-29T03:17:59.712Z,18.00
2018-05-29T03:20:28.099Z,18.00
2018-05-29T03:22:57.238Z,18.10
2018-05-29T03:25:25.599Z,18.10
2018-05-29T03:27:53.979Z,18.10
2018-05-29T03:30:22.334Z,18.10
2018-05-29T03:32:51.486Z,18.10
2018-05-29T03:35:19.867Z,18.10
2018-05-29T03:37:48.228Z,18.10
2018-05-29T03:40:16.605Z,18.10
2018-05-29T03:42:44.985Z,18.10
2018-05-29T03:45:13.331Z,18.10
2018-05-29T03:47:41.814Z,18.10
2018-05-29T03:50:10.187Z,18.10
2018-05-29T03:52:38.545Z,18.20
2018-05-29T03:55:07.711Z,18.20
2018-05-29T03:57:36.092Z,18.20
2018-05-29T04:00:04.470Z,18.30
2018-05-29T04:02:32.854Z,18.30
2018-05-29T04:05:01.234Z,18.40
2018-05-29T04:07:29.590Z,18.30
2018-05-29T04:09:58.912Z,18.40
2018-05-29T04:12:28.048Z,18.40
2018-05-29T04:14:56.416Z,18.40
2018-05-29T04:17:24.763Z,18.50
2018-05-29T04:19:53.258Z,18.50
2018-05-29T04:22:22.401Z,18.60
2018-05-29T04:24:50.764Z,18.50
2018-05-29T04:27:19.132Z,18.60
2018-05-29T04:29:48.247Z,18.60
2018-05-29T04:32:16.948Z,18.60
2018-05-29T04:34:45.328Z,18.70
2018-05-29T04:37:13.702Z,18.70
2018-05-29T04:39:42.497Z,18.80
2018-05-29T04:42:10.883Z,18.90
2018-05-29T04:44:39.250Z,19.00
2018-05-29T04:47:07.667Z,19.00
2018-05-29T04:49:36.799Z,19.20
2018-05-29T04:52:05.603Z,19.20
2018-05-29T04:54:33.971Z,19.30
2018-05-29T04:57:02.354Z,19.30
2018-05-29T04:59:30.727Z,19.40
2018-05-29T05:01:59.080Z,19.60
2018-05-29T05:04:27.457Z,19.70
2018-05-29T05:06:55.818Z,19.80
2018-05-29T05:09:24.981Z,20.00
2018-05-29T05:11:53.323Z,20.00
2018-05-29T05:14:21.693Z,20.00
2018-05-29T05:16:50.083Z,20.20
2018-05-29T05:19:18.490Z,20.20
2018-05-29T05:21:46.859Z,20.40
2018-05-29T05:24:15.239Z,20.70
2018-05-29T05:26:43.719Z,21.00
2018-05-29T05:29:12.116Z,21.30
2018-05-29T05:31:41.257Z,21.70
2018-05-29T05:34:09.630Z,21.70
2018-05-29T05:36:38.014Z,22.10
2018-05-29T05:39:06.407Z,22.30
2018-05-29T05:41:34.753Z,22.60
2018-05-29T05:44:03.593Z,22.70
2018-05-29T05:46:31.968Z,22.90
2018-05-29T05:49:00.346Z,23.00
2018-05-29T05:51:28.731Z,23.00
2018-05-29T05:53:57.133Z,23.00
2018-05-29T05:56:25.518Z,22.90
2018-05-29T05:58:54.670Z,23.20
2018-05-29T06:01:23.016Z,23.20
2018-05-29T06:03:51.408Z,23.30
2018-05-29T06:06:19.779Z,23.40
2018-05-29T06:08:48.592Z,23.40
2018-05-29T06:11:16.993Z,23.50
2018-05-29T06:13:45.365Z,23.60
2018-05-29T06:16:14.227Z,23.70
2018-05-29T06:18:42.609Z,23.80
2018-05-29T06:21:10.990Z,23.90
2018-05-29T06:23:39.373Z,24.10
2018-05-29T06:26:07.749Z,24.10
2018-05-29T06:28:36.124Z,24.30
2018-05-29T06:31:04.486Z,24.50
2018-05-29T06:33:32.890Z,24.50
2018-05-29T06:36:01.254Z,24.70
2018-05-29T06:38:29.649Z,24.80
2018-05-29T06:40:58.001Z,24.90
2018-05-29T06:43:26.415Z,25.00
2018-05-29T06:45:54.791Z,25.00
2018-05-29T06:48:23.166Z,25.10
2018-05-29T06:50:51.573Z,25.10
2018-05-29T06:53:19.925Z,25.10
2018-05-29T06:55:48.311Z,25.30
2018-05-29T06:58:17.442Z,25.50
2018-05-29T07:00:46.172Z,25.50
2018-05-29T07:03:14.534Z,25.50
2018-05-29T07:05:42.887Z,25.70
2018-05-29T07:08:11.261Z,26.00
2018-05-29T07:10:39.633Z,26.20
2018-05-29T07:13:08.032Z,26.20
2018-05-29T07:15:36.407Z,26.20
2018-05-29T07:18:04.808Z,26.30
2018-05-29T07:20:33.160Z,26.30
2018-05-29T07:23:01.533Z,26.50
2018-05-29T07:25:29.900Z,26.50
2018-05-29T07:27:58.301Z,26.80
2018-05-29T07:30:26.689Z,27.10
2018-05-29T07:32:55.081Z,27.00
2018-05-29T07:35:23.468Z,27.20
2018-05-29T07:37:51.852Z,27.30
2018-05-29T07:40:21.017Z,27.30
2018-05-29T07:42:49.383Z,27.30
2018-05-29T07:45:17.851Z,27.40
2018-05-29T07:47:46.224Z,27.60
2018-05-29T07:50:14.611Z,27.60
2018-05-29T07:52:42.987Z,27.90
2018-05-29T07:55:11.391Z,28.00
2018-05-29T07:57:39.889Z,28.00
2018-05-29T08:00:08.258Z,28.10
2018-05-29T08:02:36.624Z,28.30
2018-05-29T08:05:05.019Z,28.20
2018-05-29T08:07:33.398Z,28.50
2018-05-29T08:10:02.575Z,28.60
2018-05-29T08:12:30.962Z,28.60
2018-05-29T08:14:59.368Z,28.70
2018-05-29T08:17:28.500Z,29.10
2018-05-29T08:19:56.902Z,29.10
2018-05-29T08:22:25.254Z,28.90
2018-05-29T08:24:53.775Z,28.80
2018-05-29T08:27:22.919Z,29.10
2018-05-29T08:29:51.286Z,29.10
2018-05-29T08:32:19.687Z,29.00
2018-05-29T08:34:48.084Z,29.10
2018-05-29T08:37:16.432Z,29.50
2018-05-29T08:39:44.844Z,29.60
2018-05-29T08:42:13.210Z,29.90
2018-05-29T08:44:41.618Z,29.80
2018-05-29T08:47:10.012Z,30.00
2018-05-29T08:49:39.168Z,30.10
2018-05-29T08:52:07.532Z,30.10
2018-05-29T08:54:35.950Z,30.20
2018-05-29T08:57:04.332Z,30.40
2018-05-29T08:59:33.464Z,30.90
2018-05-29T09:02:01.853Z,30.90
2018-05-29T09:04:30.218Z,30.80
2018-05-29T09:06:59.379Z,30.90
2018-05-29T09:09:27.752Z,30.90
2018-05-29T09:11:56.206Z,31.00
2018-05-29T09:14:25.056Z,30.50
2018-05-29T09:16:54.379Z,30.70
2018-05-29T09:19:22.762Z,30.60
2018-05-29T09:21:51.548Z,30.80
2018-05-29T09:24:19.920Z,30.90
2018-05-29T09:26:48.274Z,30.90
2018-05-29T09:29:16.640Z,30.90
2018-05-29T09:31:45.749Z,31.20
2018-05-29T09:34:14.140Z,31.20
2018-05-29T09:36:42.495Z,31.50
2018-05-29T09:39:11.315Z,31.70
2018-05-29T09:41:39.684Z,31.80
2018-05-29T09:44:08.044Z,31.80
2018-05-29T09:46:36.427Z,31.60
2018-05-29T09:49:04.769Z,31.40
2018-05-29T09:51:33.137Z,31.60
2018-05-29T09:54:01.477Z,31.70
2018-05-29T09:56:29.883Z,31.90
2018-05-29T09:58:58.225Z,31.90
2018-05-29T10:01:26.588Z,32.00
2018-05-29T10:03:55.435Z,32.40
2018-05-29T10:06:23.814Z,32.80
2018-05-29T10:08:52.419Z,32.90
2018-05-29T10:11:21.607Z,32.50
2018-05-29T10:13:51.049Z,32.60
2018-05-29T10:16:20.410Z,32.60
2018-05-29T10:18:50.631Z,32.40
2018-05-29T10:21:19.371Z,32.40
2018-05-29T10:23:47.765Z,32.50
2018-05-29T10:26:16.567Z,32.50
2018-05-29T10:28:45.748Z,32.60
2018-05-29T10:31:14.524Z,32.90
2018-05-29T10:33:42.943Z,32.60
2018-05-29T10:36:12.100Z,32.60
2018-05-29T10:38:40.449Z,32.50
2018-05-29T10:41:08.812Z,32.80
2018-05-29T10:43:37.166Z,33.40
2018-05-29T10:46:06.357Z,33.20
2018-05-29T10:48:34.735Z,33.20
2018-05-29T10:51:03.100Z,33.20
2018-05-29T10:53:31.589Z,33.20
2018-05-29T10:55:59.975Z,33.30
2018-05-29T10:58:29.099Z,33.80
2018-05-29T11:00:57.488Z,33.70
2018-05-29T11:03:26.210Z,33.50
2018-05-29T11:05:56.149Z,33.60
2018-05-29T11:08:26.969Z,33.40
2018-05-29T11:10:55.351Z,33.40
2018-05-29T11:13:24.112Z,33.20
2018-05-29T11:15:52.503Z,32.90
2018-05-29T11:18:20.875Z,33.20
2018-05-29T11:20:50.683Z,33.20
2018-05-29T11:23:19.071Z,33.20
2018-05-29T11:25:47.479Z,33.80
2018-05-29T11:28:16.614Z,33.90
2018-05-29T11:30:44.983Z,33.90
2018-05-29T11:33:13.766Z,33.50
2018-05-29T11:35:42.107Z,33.70
2018-05-29T11:38:11.301Z,33.40
2018-05-29T11:40:40.467Z,33.50
2018-05-29T11:43:08.967Z,33.50
2018-05-29T11:45:37.323Z,33.50
2018-05-29T11:48:05.691Z,33.50
2018-05-29T11:50:34.488Z,33.70
2018-05-29T11:53:02.856Z,33.40
2018-05-29T11:55:31.225Z,33.40
2018-05-29T11:57:59.620Z,33.40
2018-05-29T12:00:28.033Z,33.40
2018-05-29T12:02:56.416Z,33.20
2018-05-29T12:05:25.548Z,33.30
2018-05-29T12:07:53.913Z,33.30
2018-05-29T12:10:22.311Z,33.30
2018-05-29T12:12:50.731Z,33.10
2018-05-29T12:15:19.100Z,33.20
2018-05-29T12:17:47.446Z,33.50
2018-05-29T12:20:15.845Z,33.60
2018-05-29T12:22:44.244Z,34.00
2018-05-29T12:25:12.613Z,33.60
2018-05-29T12:27:40.976Z,33.60
2018-05-29T12:30:09.457Z,33.30
2018-05-29T12:32:37.837Z,33.40
2018-05-29T12:35:06.182Z,33.50
2018-05-29T12:37:34.593Z,33.70
2018-05-29T12:40:02.989Z,33.30
2018-05-29T12:42:32.100Z,33.20
2018-05-29T12:45:01.268Z,33.70
2018-05-29T12:47:29.616Z,33.70
2018-05-29T12:49:58.017Z,34.10
2018-05-29T12:52:29.921Z,34.10
2018-05-29T12:54:58.708Z,33.90
2018-05-29T12:57:27.074Z,34.00
2018-05-29T12:59:56.219Z,34.70
2018-05-29T13:02:24.624Z,34.60
2018-05-29T13:04:53.000Z,34.20
2018-05-29T13:07:21.414Z,34.20
2018-05-29T13:09:49.796Z,34.40
2018-05-29T13:12:18.157Z,34.60
2018-05-29T13:14:47.345Z,34.30
2018-05-29T13:17:16.498Z,33.80
2018-05-29T13:19:44.891Z,33.80
2018-05-29T13:22:13.270Z,33.90
2018-05-29T13:24:41.676Z,34.40
2018-05-29T13:27:10.822Z,34.30
2018-05-29T13:29:39.205Z,34.30
2018-05-29T13:32:07.587Z,34.10
2018-05-29T13:34:36.078Z,34.40
2018-05-29T13:37:04.947Z,34.30
2018-05-29T13:39:33.299Z,33.90
2018-05-29T13:42:01.654Z,33.90
2018-05-29T13:44:30.905Z,34.00
2018-05-29T13:46:59.386Z,34.00
2018-05-29T13:49:27.726Z,33.80
2018-05-29T13:51:57.035Z,33.80
2018-05-29T13:54:25.473Z,33.90
2018-05-29T13:56:54.615Z,34.10
2018-05-29T13:59:23.259Z,34.10
2018-05-29T14:01:51.730Z,34.30
2018-05-29T14:04:20.093Z,34.00
2018-05-29T14:06:48.473Z,34.30
2018-05-29T14:09:16.850Z,33.90
2018-05-29T14:11:45.215Z,33.90
2018-05-29T14:14:13.981Z,33.90
2018-05-29T14:16:42.346Z,33.80
2018-05-29T14:19:10.691Z,34.10
2018-05-29T14:21:39.085Z,34.20
2018-05-29T14:24:08.206Z,34.20
2018-05-29T14:26:36.634Z,34.20
2018-05-29T14:29:05.053Z,34.00
2018-05-29T14:31:33.808Z,34.40
2018-05-29T14:34:02.169Z,34.20
2018-05-29T14:36:30.529Z,34.60
2018-05-29T14:38:58.923Z,34.50
2018-05-29T14:41:27.701Z,34.50
2018-05-29T14:43:56.144Z,34.40
2018-05-29T14:46:24.502Z,34.40
2018-05-29T14:48:53.236Z,34.50
2018-05-29T14:51:21.665Z,34.40
2018-05-29T14:53:50.020Z,34.50
2018-05-29T14:56:18.405Z,34.10
2018-05-29T14:58:50.538Z,34.30
2018-05-29T15:01:20.096Z,34.30
2018-05-29T15:03:48.990Z,34.00
2018-05-29T15:06:17.390Z,33.90
2018-05-29T15:08:45.879Z,34.20
2018-05-29T15:11:14.251Z,33.90
2018-05-29T15:13:42.673Z,33.80
2018-05-29T15:16:11.086Z,33.70
2018-05-29T15:18:39.583Z,33.50
2018-05-29T15:21:07.872Z,33.60
2018-05-29T15:23:36.265Z,33.30
2018-05-29T15:26:04.657Z,33.30
2018-05-29T15:28:33.807Z,33.30
2018-05-29T15:31:02.649Z,33.30
2018-05-29T15:33:32.816Z,32.50
2018-05-29T15:36:01.184Z,32.50
2018-05-29T15:38:29.567Z,32.30
2018-05-29T15:40:57.930Z,32.10
2018-05-29T15:43:26.643Z,32.00
2018-05-29T15:45:55.013Z,31.80
2018-05-29T15:48:23.370Z,31.90
2018-05-29T15:50:51.766Z,32.00
2018-05-29T15:53:20.160Z,32.10
2018-05-29T15:55:48.537Z,31.70
2018-05-29T15:58:16.932Z,31.80
2018-05-29T16:00:45.336Z,31.70
2018-05-29T16:03:14.487Z,31.70
2018-05-29T16:05:43.276Z,31.70
2018-05-29T16:08:11.642Z,31.60
2018-05-29T16:10:40.005Z,31.50
2018-05-29T16:13:08.406Z,31.70
2018-05-29T16:15:36.788Z,31.60
2018-05-29T16:18:05.155Z,31.60
2018-05-29T16:20:33.537Z,31.40
2018-05-29T16:23:01.941Z,31.40
2018-05-29T16:25:30.330Z,31.40
2018-05-29T16:27:58.821Z,31.30
2018-05-29T16:30:27.961Z,31.00
2018-05-29T16:32:56.324Z,31.00
2018-05-29T16:35:25.474Z,31.10
2018-05-29T16:37:53.835Z,31.10
2018-05-29T16:40:22.623Z,31.00
2018-05-29T16:42:50.969Z,30.90
2018-05-29T16:45:19.306Z,30.80
2018-05-29T16:47:48.564Z,30.70
2018-05-29T16:50:16.931Z,30.70
2018-05-29T16:52:45.274Z,30.60
2018-05-29T16:55:14.448Z,30.30
2018-05-29T16:57:43.580Z,30.10
2018-05-29T17:00:11.973Z,30.10
2018-05-29T17:02:40.342Z,29.80
2018-05-29T17:05:09.162Z,29.70
2018-05-29T17:07:37.535Z,29.60
2018-05-29T17:10:05.907Z,29.50
2018-05-29T17:12:34.283Z,29.50
2018-05-29T17:15:02.642Z,29.30
2018-05-29T17:17:31.130Z,29.30
2018-05-29T17:19:59.472Z,29.20
2018-05-29T17:22:28.596Z,29.20
2018-05-29T17:24:56.980Z,29.10
2018-05-29T17:27:25.325Z,29.10
2018-05-29T17:29:53.716Z,29.00
2018-05-29T17:32:22.068Z,28.90
2018-05-29T17:34:51.218Z,28.90
2018-05-29T17:37:19.593Z,28.80
2018-05-29T17:39:47.986Z,28.70
2018-05-29T17:42:16.497Z,28.60
2018-05-29T17:44:44.903Z,28.50
2018-05-29T17:47:16.508Z,28.40
2018-05-29T17:49:45.229Z,28.30
2018-05-29T17:52:13.609Z,28.20
2018-05-29T17:54:41.992Z,28.00
2018-05-29T17:57:10.385Z,27.90
2018-05-29T17:59:39.199Z,27.80
2018-05-29T18:02:07.561Z,27.70
2018-05-29T18:04:35.941Z,27.60
2018-05-29T18:07:04.335Z,27.60
2018-05-29T18:09:32.696Z,27.50
2018-05-29T18:12:01.084Z,27.50
2018-05-29T18:14:29.439Z,27.40
2018-05-29T18:16:57.804Z,27.30
2018-05-29T18:19:26.171Z,27.20
2018-05-29T18:21:54.573Z,27.20
2018-05-29T18:24:23.704Z,27.20
2018-05-29T18:26:52.091Z,27.10
2018-05-29T18:29:20.469Z,27.00
2018-05-29T18:31:48.856Z,26.80
2018-05-29T18:34:18.146Z,26.40
2018-05-29T18:36:46.520Z,26.40
2018-05-29T18:39:14.888Z,26.30
2018-05-29T18:41:43.278Z,26.20
2018-05-29T18:44:11.665Z,26.10
2018-05-29T18:46:40.827Z,25.80
2018-05-29T18:49:09.249Z,25.80
2018-05-29T18:51:37.591Z,25.70
2018-05-29T18:54:05.955Z,25.10
2018-05-29T18:56:34.357Z,24.30
2018-05-29T18:59:02.757Z,23.80
2018-05-29T19:01:31.914Z,22.90
2018-05-29T19:04:01.281Z,22.80
2018-05-29T19:06:30.409Z,22.40
2018-05-29T19:08:58.912Z,22.30
2018-05-29T19:11:27.290Z,22.30
2018-05-29T19:13:55.819Z,22.30
2018-05-29T19:16:24.456Z,22.20
2018-05-29T19:18:52.824Z,22.20
2018-05-29T19:21:21.229Z,22.20
2018-05-29T19:23:50.383Z,22.20
2018-05-29T19:26:18.896Z,22.10
2018-05-29T19:28:48.080Z,22.00
2018-05-29T19:31:16.900Z,21.90
2018-05-29T19:33:45.527Z,21.90
2018-05-29T19:36:13.969Z,21.80
2018-05-29T19:38:42.439Z,21.80
2018-05-29T19:41:11.611Z,21.30
2018-05-29T19:43:40.023Z,21.20
2018-05-29T19:46:08.535Z,21.10
2018-05-29T19:48:37.030Z,21.10
2018-05-29T19:51:06.522Z,21.00
2018-05-29T19:53:34.946Z,21.00
2018-05-29T19:56:04.150Z,20.90
2018-05-29T19:58:33.290Z,20.80
2018-05-29T20:01:01.972Z,20.80
2018-05-29T20:03:30.390Z,20.70
2018-05-29T20:05:58.814Z,20.60
2018-05-29T20:08:28.360Z,20.60
2018-05-29T20:10:56.767Z,20.60
2018-05-29T20:13:25.900Z,20.40
2018-05-29T20:15:54.274Z,20.40
2018-05-29T20:18:22.673Z,20.40
2018-05-29T20:20:51.076Z,20.40
2018-05-29T20:23:19.501Z,20.40
2018-05-29T20:25:47.895Z,20.30
2018-05-29T20:28:16.299Z,20.40
2018-05-29T20:30:44.678Z,20.40
2018-05-29T20:33:13.079Z,20.40
2018-05-29T20:35:42.208Z,20.20
2018-05-29T20:38:10.609Z,20.20
2018-05-29T20:40:39.045Z,20.20
2018-05-29T20:43:07.542Z,20.20
2018-05-29T20:45:35.919Z,20.40
2018-05-29T20:48:04.305Z,20.50
2018-05-29T20:50:32.714Z,20.60
2018-05-29T20:53:01.090Z,20.60
2018-05-29T20:55:29.870Z,20.50
2018-05-29T20:57:58.232Z,20.40
2018-05-29T21:00:26.622Z,20.50
2018-05-29T21:02:55.385Z,20.60
2018-05-29T21:05:23.771Z,20.60
2018-05-29T21:07:52.142Z,20.70
2018-05-29T21:10:20.539Z,20.80
2018-05-29T21:12:48.933Z,20.70
2018-05-29T21:15:17.314Z,20.60
2018-05-29T21:17:45.710Z,20.70
2018-05-29T21:20:14.113Z,20.80
2018-05-29T21:22:42.471Z,20.80
2018-05-29T21:25:11.948Z,20.80
2018-05-29T21:27:40.321Z,20.80
2018-05-29T21:30:08.695Z,20.80
2018-05-29T21:32:37.085Z,20.80
2018-05-29T21:35:05.508Z,20.70
2018-05-29T21:37:33.918Z,20.50
2018-05-29T21:40:02.264Z,20.10
2018-05-29T21:42:30.735Z,19.90
2018-05-29T21:44:59.861Z,19.60
2018-05-29T21:47:28.228Z,19.60
2018-05-29T21:49:56.609Z,19.60
2018-05-29T21:52:25.009Z,19.50
2018-05-29T21:54:53.526Z,19.40
2018-05-29T21:57:21.906Z,19.30
2018-05-29T21:59:51.038Z,19.20
2018-05-29T22:02:19.451Z,19.20
2018-05-29T22:04:47.841Z,19.10
2018-05-29T22:07:16.208Z,19.20
2018-05-29T22:09:46.628Z,19.10
2018-05-29T22:12:15.370Z,19.10
2018-05-29T22:14:43.807Z,19.10
2018-05-29T22:17:14.211Z,19.20
2018-05-29T22:19:42.611Z,19.20
2018-05-29T22:22:11.643Z,19.10
2018-05-29T22:24:40.008Z,19.10
2018-05-29T22:27:09.167Z,19.00
2018-05-29T22:29:37.545Z,19.00
2018-05-29T22:32:05.919Z,19.10
2018-05-29T22:34:34.697Z,19.00
2018-05-29T22:37:03.078Z,19.00
2018-05-29T22:39:31.449Z,19.00
2018-05-29T22:41:59.861Z,18.90
2018-05-29T22:44:28.240Z,18.90
2018-05-29T22:46:56.664Z,18.90
2018-05-29T22:49:25.042Z,18.80
2018-05-29T22:51:53.405Z,18.80
2018-05-29T22:54:21.800Z,18.90
2018-05-29T22:56:50.186Z,18.90
2018-05-29T22:59:18.587Z,19.00
2018-05-29T23:01:46.982Z,19.00
2018-05-29T23:04:15.479Z,19.10
2018-05-29T23:06:44.611Z,19.00
2018-05-29T23:09:12.987Z,19.00
2018-05-29T23:11:41.392Z,19.00
2018-05-29T23:14:09.780Z,19.00
2018-05-29T23:16:38.557Z,19.00
2018-05-29T23:19:06.929Z,18.90
2018-05-29T23:21:35.315Z,19.00
2018-05-29T23:24:03.708Z,19.00
2018-05-29T23:26:32.079Z,19.00
2018-05-29T23:29:00.882Z,19.10
2018-05-29T23:31:29.260Z,19.10
2018-05-29T23:33:57.638Z,19.10
2018-05-29T23:36:26.035Z,19.10
2018-05-29T23:38:55.158Z,19.10
2018-05-29T23:41:23.569Z,19.10
2018-05-29T23:43:51.967Z,19.10
2018-05-29T23:46:20.465Z,19.10
2018-05-29T23:48:49.588Z,19.20
2018-05-29T23:51:17.987Z,19.20
2018-05-29T23:53:46.383Z,19.20
2018-05-29T23:56:15.101Z,19.10
2018-05-29T23:58:44.243Z,19.00
